Time;durP1;ratioP1;P1;durP2;ratioP2;P2;SDS_P1;SDS_P2;PMS_P1;PMS_P2;Temp;Humidity;BMP_temperature;BMP_pressure;BME280_temperature;BME280_humidity;BME280_pressure;Samples;Min_cycle;Max_cycle;Signal;HPM_P1;HPM_P2
2023/07/13 00:00:15;;;;;;;10.93;2.10;;;;;;;;;;5215811;28;20475;-70
2023/07/13 00:02:45;;;;;;;11.57;2.55;;;;;;;;;;5218912;28;20037;-71
2023/07/13 00:05:16;;;;;;;14.40;2.85;;;;;;;;;;5224033;28;20021;-70
2023/07/13 00:07:46;;;;;;;10.43;2.35;;;;;;;;;;5223660;28;20021;-70
2023/07/13 00:10:17;;;;;;;10.45;2.47;;;;;;;;;;5223884;28;20567;-70
2023/07/13 00:12:47;;;;;;;10.40;2.20;;;;;;;;;;5224043;28;20021;-70
2023/07/13 00:18:05;;;;;;;10.15;2.30;;;;;;;;;;5218925;28;20083;-70
2023/07/13 00:20:35;;;;;;;13.48;2.20;;;;;;;;;;5224148;28;20013;-70
2023/07/13 00:23:05;;;;;;;12.00;2.42;;;;;;;;;;5223048;28;20025;-70
2023/07/13 00:25:36;;;;;;;14.25;2.38;;;;;;;;;;5223231;28;20112;-71
2023/07/13 00:28:06;;;;;;;11.38;2.20;;;;;;;;;;5223890;28;20075;-70
2023/07/13 00:30:36;;;;;;;15.13;1.98;;;;;;;;;;5223772;28;20054;-70
2023/07/13 00:33:07;;;;;;;14.23;2.72;;;;;;;;;;5224105;28;20008;-70
2023/07/13 00:35:39;;;;;;;9.15;2.33;;;;;;;;;;5223650;28;20187;-69
2023/07/13 00:38:09;;;;;;;6.93;1.95;;;;;;;;;;5223611;28;20498;-70
2023/07/13 00:40:40;;;;;;;13.02;2.45;;;;;;;;;;5224186;28;20021;-70
2023/07/13 00:43:13;;;;;;;18.90;2.90;;;;;;;;;;5223781;28;20031;-70
2023/07/13 00:45:43;;;;;;;13.18;2.88;;;;;;;;;;5223420;28;20025;-71
2023/07/13 00:48:19;;;;;;;11.20;2.42;;;;;;;;;;5223496;28;20074;-70
2023/07/13 00:50:51;;;;;;;9.20;1.77;;;;;;;;;;5223606;28;20056;-70
2023/07/13 00:53:24;;;;;;;11.05;2.60;;;;;;;;;;5223711;28;20029;-70
2023/07/13 00:55:55;;;;;;;9.82;2.10;;;;;;;;;;5223207;28;20308;-70
2023/07/13 00:58:27;;;;;;;7.60;2.22;;;;;;;;;;5223519;28;20017;-70
2023/07/13 01:00:57;;;;;;;8.38;2.28;;;;;;;;;;5212806;28;20029;-71
2023/07/13 01:03:28;;;;;;;10.00;2.30;;;;;;;;;;5227825;28;20021;-70
2023/07/13 01:05:59;;;;;;;11.63;2.65;;;;;;;;;;5227367;28;20540;-70
2023/07/13 01:08:29;;;;;;;13.10;2.83;;;;;;;;;;5227475;28;20025;-70
2023/07/13 01:10:59;;;;;;;13.80;3.03;;;;;;;;;;5227109;28;20070;-70
2023/07/13 01:13:30;;;;;;;10.30;2.25;;;;;;;;;;5227349;28;20025;-70
2023/07/13 01:16:04;;;;;;;12.30;2.58;;;;;;;;;;5226820;28;20013;-70
2023/07/13 01:18:34;;;;;;;8.82;2.63;;;;;;;;;;5227258;28;20075;-70
2023/07/13 01:21:04;;;;;;;8.45;2.28;;;;;;;;;;5227236;28;20479;-71
2023/07/13 01:23:35;;;;;;;7.70;2.25;;;;;;;;;;5227258;28;20029;-70
2023/07/13 01:26:05;;;;;;;8.10;2.28;;;;;;;;;;5225331;28;20108;-71
2023/07/13 01:28:36;;;;;;;7.90;2.40;;;;;;;;;;5226741;28;20025;-70
2023/07/13 01:31:08;;;;;;;9.43;2.42;;;;;;;;;;5227326;28;20036;-70
2023/07/13 01:33:40;;;;;;;12.25;2.72;;;;;;;;;;5226965;28;20052;-70
2023/07/13 01:36:10;;;;;;;8.07;2.33;;;;;;;;;;5226793;28;20025;-70
2023/07/13 01:38:41;;;;;;;11.38;3.00;;;;;;;;;;5226659;28;20396;-71
2023/07/13 01:41:11;;;;;;;15.93;2.80;;;;;;;;;;5227003;28;20119;-71
2023/07/13 01:43:41;;;;;;;12.25;2.90;;;;;;;;;;5226769;28;20021;-70
2023/07/13 01:46:12;;;;;;;10.70;2.67;;;;;;;;;;5226361;28;20323;-70
2023/07/13 01:48:42;;;;;;;11.50;2.58;;;;;;;;;;5226425;28;20401;-71
2023/07/13 01:51:13;;;;;;;15.43;2.83;;;;;;;;;;5226519;28;20021;-70
2023/07/13 01:53:43;;;;;;;14.90;2.80;;;;;;;;;;5226711;28;20032;-70
2023/07/13 01:56:13;;;;;;;11.98;2.55;;;;;;;;;;5226218;28;20009;-70
2023/07/13 01:58:44;;;;;;;12.85;2.60;;;;;;;;;;5226351;28;20100;-70
2023/07/13 02:01:15;;;;;;;17.08;3.20;;;;;;;;;;5212733;28;20390;-71
2023/07/13 02:03:46;;;;;;;7.63;2.85;;;;;;;;;;5226899;28;20053;-71
2023/07/13 02:06:16;;;;;;;17.13;2.60;;;;;;;;;;5225762;28;20021;-70
2023/07/13 02:08:47;;;;;;;8.52;2.40;;;;;;;;;;5233238;28;20143;-71
2023/07/13 02:11:17;;;;;;;12.95;2.85;;;;;;;;;;5224942;28;20107;-70
2023/07/13 02:13:48;;;;;;;10.02;3.55;;;;;;;;;;5225746;28;20015;-70
2023/07/13 02:16:18;;;;;;;10.25;2.63;;;;;;;;;;5225837;28;20481;-71
2023/07/13 02:18:52;;;;;;;11.23;2.60;;;;;;;;;;5225946;28;20490;-70
2023/07/13 02:21:23;;;;;;;13.32;2.90;;;;;;;;;;5226093;28;20025;-70
2023/07/13 02:23:54;;;;;;;7.85;2.30;;;;;;;;;;5225874;28;20159;-70
2023/07/13 02:26:25;;;;;;;10.55;3.45;;;;;;;;;;5225909;28;20024;-71
2023/07/13 02:28:55;;;;;;;12.02;3.05;;;;;;;;;;5225659;28;20402;-70
2023/07/13 02:31:25;;;;;;;13.82;3.08;;;;;;;;;;5225913;28;20017;-71
2023/07/13 02:33:56;;;;;;;11.02;3.55;;;;;;;;;;5225753;28;20028;-70
2023/07/13 02:36:26;;;;;;;14.73;2.83;;;;;;;;;;5225493;28;20017;-70
2023/07/13 02:38:57;;;;;;;8.52;2.53;;;;;;;;;;5225183;28;20100;-71
2023/07/13 02:41:28;;;;;;;10.02;2.67;;;;;;;;;;5225592;28;20115;-70
2023/07/13 02:44:03;;;;;;;14.75;3.17;;;;;;;;;;5225741;28;20511;-70
2023/07/13 02:46:34;;;;;;;14.75;2.47;;;;;;;;;;5224936;28;20147;-70
2023/07/13 02:49:05;;;;;;;12.52;3.35;;;;;;;;;;5225442;28;20024;-71
2023/07/13 02:51:35;;;;;;;10.75;2.85;;;;;;;;;;5224925;28;20029;-70
2023/07/13 02:54:08;;;;;;;13.18;3.70;;;;;;;;;;5225575;28;20043;-71
2023/07/13 02:56:38;;;;;;;11.65;2.75;;;;;;;;;;5224802;28;20074;-70
2023/07/13 02:59:09;;;;;;;11.80;3.40;;;;;;;;;;5225453;28;20039;-70
2023/07/13 03:01:40;;;;;;;14.32;2.75;;;;;;;;;;5224804;28;20029;-70
2023/07/13 03:04:12;;;;;;;13.85;3.20;;;;;;;;;;5225197;28;20534;-70
2023/07/13 03:06:42;;;;;;;8.88;2.83;;;;;;;;;;5224613;28;20021;-71
2023/07/13 03:09:12;;;;;;;12.70;2.97;;;;;;;;;;5224827;28;20496;-71
2023/07/13 03:11:43;;;;;;;12.93;2.58;;;;;;;;;;5224916;28;20040;-71
2023/07/13 03:14:13;;;;;;;17.13;3.08;;;;;;;;;;5224670;28;20368;-70
2023/07/13 03:16:43;;;;;;;21.45;3.97;;;;;;;;;;5224416;28;20013;-71
2023/07/13 03:19:14;;;;;;;15.38;2.70;;;;;;;;;;5224971;28;20020;-70
2023/07/13 03:21:44;;;;;;;10.65;3.00;;;;;;;;;;5224922;28;20083;-71
2023/07/13 03:24:15;;;;;;;11.38;3.05;;;;;;;;;;5224651;28;20021;-71
2023/07/13 03:26:45;;;;;;;10.07;3.08;;;;;;;;;;5223927;28;20032;-70
2023/07/13 03:29:15;;;;;;;12.73;3.40;;;;;;;;;;5224582;28;20017;-71
2023/07/13 03:31:46;;;;;;;16.00;3.22;;;;;;;;;;5224591;28;20132;-70
2023/07/13 03:34:16;;;;;;;7.30;2.80;;;;;;;;;;5224827;28;20025;-71
2023/07/13 03:36:46;;;;;;;18.60;4.18;;;;;;;;;;5224141;28;20052;-70
2023/07/13 03:39:16;;;;;;;17.95;2.92;;;;;;;;;;5224816;28;20403;-71
2023/07/13 03:41:47;;;;;;;18.08;3.55;;;;;;;;;;5224768;28;20033;-71
2023/07/13 03:44:17;;;;;;;22.05;3.10;;;;;;;;;;5225019;28;20028;-70
2023/07/13 03:46:48;;;;;;;16.70;3.80;;;;;;;;;;5224423;28;20017;-71
2023/07/13 03:49:18;;;;;;;15.18;2.70;;;;;;;;;;5224920;28;20104;-71
2023/07/13 03:51:48;;;;;;;17.45;3.55;;;;;;;;;;5224364;28;20017;-71
2023/07/13 03:54:19;;;;;;;25.67;4.82;;;;;;;;;;5225127;28;20017;-71
2023/07/13 03:56:49;;;;;;;13.68;2.90;;;;;;;;;;5224345;28;20028;-71
2023/07/13 03:59:19;;;;;;;17.98;3.75;;;;;;;;;;5223531;28;20100;-72
2023/07/13 04:01:50;;;;;;;14.90;3.60;;;;;;;;;;5212340;28;20032;-72
2023/07/13 04:04:20;;;;;;;16.25;3.40;;;;;;;;;;5224413;28;20029;-71
2023/07/13 04:06:53;;;;;;;27.40;4.03;;;;;;;;;;5224659;28;20009;-71
2023/07/13 04:09:23;;;;;;;16.02;4.22;;;;;;;;;;5224475;28;20024;-71
2023/07/13 04:11:53;;;;;;;18.95;3.30;;;;;;;;;;5224475;28;20029;-71
2023/07/13 04:14:23;;;;;;;19.85;4.03;;;;;;;;;;5224711;28;20021;-71
2023/07/13 04:16:54;;;;;;;17.30;3.70;;;;;;;;;;5223599;28;20021;-71
2023/07/13 04:19:24;;;;;;;19.55;4.68;;;;;;;;;;5224390;28;20152;-70
2023/07/13 04:21:55;;;;;;;23.58;3.53;;;;;;;;;;5225052;28;20108;-71
2023/07/13 04:24:25;;;;;;;24.33;3.50;;;;;;;;;;5224560;28;20388;-71
2023/07/13 04:26:59;;;;;;;18.55;4.13;;;;;;;;;;5224560;28;20463;-71
2023/07/13 04:29:30;;;;;;;13.82;3.47;;;;;;;;;;5225063;28;20033;-71
2023/07/13 04:32:00;;;;;;;12.73;4.25;;;;;;;;;;5224461;28;20414;-71
2023/07/13 04:34:31;;;;;;;15.18;3.92;;;;;;;;;;5225689;28;20070;-71
2023/07/13 04:37:01;;;;;;;25.10;3.85;;;;;;;;;;5228303;28;20041;-71
2023/07/13 04:39:31;;;;;;;16.60;4.13;;;;;;;;;;5228256;28;20511;-71
2023/07/13 04:42:01;;;;;;;15.60;3.83;;;;;;;;;;5228056;28;20024;-71
2023/07/13 04:44:32;;;;;;;20.08;3.60;;;;;;;;;;5228217;28;20509;-71
2023/07/13 04:47:02;;;;;;;11.98;3.97;;;;;;;;;;5227887;28;20367;-70
2023/07/13 04:49:32;;;;;;;10.02;3.95;;;;;;;;;;5228242;28;20017;-71
2023/07/13 04:52:03;;;;;;;18.80;3.55;;;;;;;;;;5228089;28;20048;-71
2023/07/13 04:54:34;;;;;;;15.30;3.63;;;;;;;;;;5227862;28;20060;-71
2023/07/13 04:57:06;;;;;;;16.70;4.13;;;;;;;;;;5227756;28;20390;-71
2023/07/13 04:59:36;;;;;;;11.40;3.80;;;;;;;;;;5223412;28;20041;-71
2023/07/13 05:02:07;;;;;;;21.98;4.53;;;;;;;;;;5217335;28;20037;-71
2023/07/13 05:04:37;;;;;;;16.85;3.38;;;;;;;;;;5227144;28;20025;-71
2023/07/13 05:07:07;;;;;;;19.23;4.45;;;;;;;;;;5227188;28;20090;-71
2023/07/13 05:09:38;;;;;;;18.35;4.13;;;;;;;;;;5227195;28;20017;-71
2023/07/13 05:12:09;;;;;;;23.92;4.15;;;;;;;;;;5219634;28;20132;-71
2023/07/13 05:14:39;;;;;;;19.95;4.43;;;;;;;;;;5227205;28;20510;-71
2023/07/13 05:17:10;;;;;;;19.65;3.75;;;;;;;;;;5226470;28;20497;-71
2023/07/13 05:19:40;;;;;;;16.27;3.70;;;;;;;;;;5227217;28;20088;-71
2023/07/13 05:22:10;;;;;;;19.00;3.85;;;;;;;;;;5227080;28;20029;-71
2023/07/13 05:24:41;;;;;;;21.02;3.80;;;;;;;;;;5227031;28;20025;-71
2023/07/13 05:27:11;;;;;;;15.68;3.67;;;;;;;;;;5226986;28;20067;-71
2023/07/13 05:29:41;;;;;;;16.30;4.35;;;;;;;;;;5226712;28;20348;-71
2023/07/13 05:32:12;;;;;;;11.45;3.78;;;;;;;;;;5226880;28;20079;-71
2023/07/13 05:34:42;;;;;;;19.83;4.18;;;;;;;;;;5227022;28;20037;-70
2023/07/13 05:37:12;;;;;;;18.33;4.40;;;;;;;;;;5226436;28;20028;-71
2023/07/13 05:39:42;;;;;;;19.73;3.80;;;;;;;;;;5226733;28;20032;-71
2023/07/13 05:42:13;;;;;;;17.42;3.67;;;;;;;;;;5226368;28;20082;-71
2023/07/13 05:44:43;;;;;;;19.27;3.70;;;;;;;;;;5226678;28;20029;-71
2023/07/13 05:47:14;;;;;;;18.45;4.30;;;;;;;;;;5226533;28;20025;-70
2023/07/13 05:49:45;;;;;;;15.40;3.90;;;;;;;;;;5226902;28;20143;-71
2023/07/13 05:52:15;;;;;;;15.32;3.75;;;;;;;;;;5226746;28;20478;-70
2023/07/13 05:54:45;;;;;;;18.65;3.90;;;;;;;;;;5226066;28;20020;-71
2023/07/13 05:57:15;;;;;;;15.48;3.35;;;;;;;;;;5226390;28;20017;-71
2023/07/13 05:59:46;;;;;;;15.68;4.82;;;;;;;;;;5221849;28;20017;-71
2023/07/13 06:02:16;;;;;;;21.38;4.20;;;;;;;;;;5217866;28;20486;-71
2023/07/13 06:04:46;;;;;;;15.77;3.92;;;;;;;;;;5226294;28;20026;-71
2023/07/13 06:07:17;;;;;;;14.90;3.83;;;;;;;;;;5225484;28;20029;-70
2023/07/13 06:09:47;;;;;;;18.58;3.92;;;;;;;;;;5226012;28;20019;-71
2023/07/13 06:12:17;;;;;;;22.15;3.95;;;;;;;;;;5226088;28;20029;-70
2023/07/13 06:14:47;;;;;;;30.17;5.07;;;;;;;;;;5225089;28;20356;-71
2023/07/13 06:17:18;;;;;;;20.17;4.68;;;;;;;;;;5225807;28;20032;-71
2023/07/13 06:19:48;;;;;;;21.15;4.38;;;;;;;;;;5225765;28;20067;-71
2023/07/13 06:22:18;;;;;;;24.02;4.60;;;;;;;;;;5226219;28;20313;-71
2023/07/13 06:24:49;;;;;;;32.28;4.22;;;;;;;;;;5225941;28;20028;-71
2023/07/13 06:27:19;;;;;;;20.98;4.60;;;;;;;;;;5225722;28;20047;-71
2023/07/13 06:29:50;;;;;;;16.40;4.55;;;;;;;;;;5225876;28;20040;-71
2023/07/13 06:32:20;;;;;;;14.73;4.13;;;;;;;;;;5225335;28;20107;-71
2023/07/13 06:34:51;;;;;;;22.60;4.95;;;;;;;;;;5225843;28;20035;-71
2023/07/13 06:37:22;;;;;;;13.18;4.25;;;;;;;;;;5225697;28;20510;-70
2023/07/13 06:39:52;;;;;;;12.23;3.80;;;;;;;;;;5225578;28;20017;-71
2023/07/13 06:42:22;;;;;;;15.00;4.03;;;;;;;;;;5225772;28;20471;-71
2023/07/13 06:44:52;;;;;;;24.38;4.38;;;;;;;;;;5225248;28;20072;-71
2023/07/13 06:47:23;;;;;;;15.88;4.82;;;;;;;;;;5225399;28;20386;-71
2023/07/13 06:49:53;;;;;;;23.05;4.90;;;;;;;;;;5225353;28;20379;-71
2023/07/13 06:52:24;;;;;;;27.50;5.55;;;;;;;;;;5225512;28;20033;-71
2023/07/13 06:54:54;;;;;;;21.92;4.50;;;;;;;;;;5225122;28;20039;-71
2023/07/13 06:57:25;;;;;;;22.13;4.40;;;;;;;;;;5224223;28;20024;-71
2023/07/13 06:59:55;;;;;;;15.93;4.18;;;;;;;;;;5219231;28;20025;-71
2023/07/13 07:02:25;;;;;;;20.40;4.55;;;;;;;;;;5217587;28;20031;-71
2023/07/13 07:04:56;;;;;;;22.33;4.80;;;;;;;;;;5225148;28;20056;-71
2023/07/13 07:07:26;;;;;;;25.33;4.07;;;;;;;;;;5224451;28;20043;-71
2023/07/13 07:09:56;;;;;;;16.25;4.10;;;;;;;;;;5225147;28;20021;-71
2023/07/13 07:12:27;;;;;;;13.80;3.53;;;;;;;;;;5224956;28;20044;-71
2023/07/13 07:14:58;;;;;;;17.40;3.67;;;;;;;;;;5225172;28;20465;-71
2023/07/13 07:17:28;;;;;;;14.30;3.88;;;;;;;;;;5224824;28;20016;-71
2023/07/13 07:19:58;;;;;;;18.65;4.07;;;;;;;;;;5225224;28;20021;-71
2023/07/13 07:22:30;;;;;;;24.33;4.60;;;;;;;;;;5224644;28;20505;-71
2023/07/13 07:25:00;;;;;;;15.27;3.30;;;;;;;;;;5224941;28;20053;-71
2023/07/13 07:27:30;;;;;;;15.40;3.35;;;;;;;;;;5224412;28;20052;-71
2023/07/13 07:30:00;;;;;;;18.25;3.90;;;;;;;;;;5224850;28;20029;-71
2023/07/13 07:32:31;;;;;;;13.05;4.00;;;;;;;;;;5211411;28;20021;-71
2023/07/13 07:35:01;;;;;;;13.70;4.13;;;;;;;;;;5224884;28;20021;-71
2023/07/13 07:37:31;;;;;;;19.88;4.22;;;;;;;;;;5224432;28;20409;-71
2023/07/13 07:40:02;;;;;;;15.25;4.03;;;;;;;;;;5224790;28;20025;-71
2023/07/13 07:42:32;;;;;;;19.95;4.05;;;;;;;;;;5225089;28;20069;-71
2023/07/13 07:45:03;;;;;;;14.35;2.60;;;;;;;;;;5224344;28;20482;-71
2023/07/13 07:47:33;;;;;;;15.05;3.42;;;;;;;;;;5224263;28;20031;-71
2023/07/13 07:50:04;;;;;;;18.60;4.38;;;;;;;;;;5224644;28;20024;-71
2023/07/13 07:52:34;;;;;;;13.52;3.58;;;;;;;;;;5224596;28;20441;-71
2023/07/13 07:55:06;;;;;;;14.05;3.42;;;;;;;;;;5224447;28;20024;-72
2023/07/13 07:57:36;;;;;;;13.27;3.33;;;;;;;;;;5224219;28;20438;-72
2023/07/13 08:00:07;;;;;;;11.35;3.40;;;;;;;;;;5217074;28;20029;-72
2023/07/13 08:02:37;;;;;;;13.77;2.92;;;;;;;;;;5218346;28;20112;-72
2023/07/13 08:05:08;;;;;;;13.07;3.13;;;;;;;;;;5224417;28;20053;-72
2023/07/13 08:07:39;;;;;;;15.30;2.88;;;;;;;;;;5224364;28;20441;-72
2023/07/13 08:10:09;;;;;;;14.43;2.97;;;;;;;;;;5226170;28;20105;-72
2023/07/13 08:12:40;;;;;;;11.35;3.00;;;;;;;;;;5228397;28;20433;-72
2023/07/13 08:15:12;;;;;;;15.80;3.30;;;;;;;;;;5228600;28;20485;-72
2023/07/13 08:17:42;;;;;;;17.67;3.00;;;;;;;;;;5227933;28;20082;-72
2023/07/13 08:20:12;;;;;;;8.27;2.97;;;;;;;;;;5228550;28;20021;-72
2023/07/13 08:22:42;;;;;;;12.60;2.72;;;;;;;;;;5228079;28;20037;-72
2023/07/13 08:25:13;;;;;;;15.93;3.22;;;;;;;;;;5228464;28;20025;-72
2023/07/13 08:27:43;;;;;;;14.50;2.90;;;;;;;;;;5228065;28;20505;-72
2023/07/13 08:30:13;;;;;;;12.57;2.95;;;;;;;;;;5226956;28;20120;-72
2023/07/13 08:32:44;;;;;;;17.10;2.97;;;;;;;;;;5228216;28;20025;-72
2023/07/13 08:35:15;;;;;;;8.75;3.67;;;;;;;;;;5227738;28;20492;-72
2023/07/13 08:37:46;;;;;;;17.45;3.15;;;;;;;;;;5227809;28;20382;-72
2023/07/13 08:40:16;;;;;;;10.07;2.78;;;;;;;;;;5228281;28;20025;-72
2023/07/13 08:42:52;;;;;;;17.30;2.92;;;;;;;;;;5228534;28;20448;-73
2023/07/13 08:45:23;;;;;;;13.82;2.88;;;;;;;;;;5227780;28;20363;-72
2023/07/13 08:47:56;;;;;;;12.05;2.90;;;;;;;;;;5227621;28;20024;-72
2023/07/13 08:50:30;;;;;;;12.23;2.60;;;;;;;;;;5228298;28;20021;-72
2023/07/13 08:53:02;;;;;;;18.30;3.90;;;;;;;;;;5227677;28;20025;-72
2023/07/13 08:55:37;;;;;;;12.75;3.40;;;;;;;;;;5227683;28;20371;-72
2023/07/13 08:58:10;;;;;;;11.32;3.05;;;;;;;;;;5227139;28;20025;-72
2023/07/13 09:00:57;;;;;;;10.30;3.00;;;;;;;;;;5227687;28;20013;-72
2023/07/13 09:03:35;;;;;;;9.10;2.33;;;;;;;;;;5213908;28;20386;-72
2023/07/13 09:06:06;;;;;;;8.85;2.78;;;;;;;;;;5225928;28;20051;-72
2023/07/13 09:08:55;;;;;;;12.52;2.90;;;;;;;;;;5225762;28;20059;-72
2023/07/13 09:11:26;;;;;;;13.20;2.60;;;;;;;;;;5225979;28;20086;-73
2023/07/13 09:14:03;;;;;;;10.68;2.92;;;;;;;;;;5226064;28;20388;-72
2023/07/13 09:16:34;;;;;;;9.63;2.78;;;;;;;;;;5225698;28;20052;-72
2023/07/13 09:19:06;;;;;;;10.38;2.85;;;;;;;;;;5225642;28;20498;-72
2023/07/13 09:21:39;;;;;;;10.90;2.80;;;;;;;;;;5225914;28;20029;-72
2023/07/13 09:24:28;;;;;;;8.82;2.83;;;;;;;;;;5226000;28;20025;-72
2023/07/13 09:26:58;;;;;;;8.65;2.53;;;;;;;;;;5225405;28;20429;-72
2023/07/13 09:29:32;;;;;;;14.57;3.03;;;;;;;;;;5225588;28;20029;-72
2023/07/13 09:32:06;;;;;;;9.40;2.42;;;;;;;;;;5225910;28;20024;-72
2023/07/13 09:34:36;;;;;;;10.27;2.47;;;;;;;;;;5225839;28;20022;-72
2023/07/13 09:37:06;;;;;;;7.90;2.30;;;;;;;;;;5225708;28;20383;-72
2023/07/13 09:39:38;;;;;;;7.95;2.03;;;;;;;;;;5225436;28;20040;-73
2023/07/13 09:42:22;;;;;;;6.70;2.53;;;;;;;;;;5225743;28;20032;-73
2023/07/13 09:44:54;;;;;;;8.70;2.72;;;;;;;;;;5225680;28;20048;-72
2023/07/13 09:47:41;;;;;;;8.70;2.65;;;;;;;;;;5225392;28;20032;-72
2023/07/13 09:50:28;;;;;;;5.07;1.98;;;;;;;;;;5225097;28;20112;-72
2023/07/13 09:53:01;;;;;;;8.82;2.47;;;;;;;;;;5225471;28;20013;-72
2023/07/13 09:55:34;;;;;;;13.30;2.38;;;;;;;;;;5225755;28;20052;-72
2023/07/13 09:58:10;;;;;;;15.05;2.47;;;;;;;;;;5225160;28;20020;-72
2023/07/13 10:00:41;;;;;;;4.93;1.88;;;;;;;;;;5213124;28;20025;-73
2023/07/13 10:03:32;;;;;;;11.10;2.33;;;;;;;;;;5186174;28;1121106;-73
2023/07/13 10:06:11;;;;;;;7.28;2.63;;;;;;;;;;5225885;28;20124;-73
2023/07/13 10:08:41;;;;;;;6.82;2.30;;;;;;;;;;5226036;28;20021;-73
2023/07/13 10:11:16;;;;;;;12.10;2.45;;;;;;;;;;5225937;28;20024;-73
2023/07/13 10:13:48;;;;;;;7.38;2.20;;;;;;;;;;5226257;28;20028;-73
2023/07/13 10:16:19;;;;;;;6.15;2.08;;;;;;;;;;5225622;28;20368;-73
2023/07/13 10:18:52;;;;;;;6.47;2.00;;;;;;;;;;5225944;28;20017;-72
2023/07/13 10:21:26;;;;;;;10.18;2.40;;;;;;;;;;5226121;28;20505;-73
2023/07/13 10:24:15;;;;;;;12.13;2.20;;;;;;;;;;5226083;28;20108;-72
2023/07/13 10:26:48;;;;;;;9.20;2.00;;;;;;;;;;5225449;28;20027;-73
2023/07/13 10:29:20;;;;;;;8.30;2.10;;;;;;;;;;5225850;28;20025;-73
2023/07/13 10:31:51;;;;;;;4.38;1.60;;;;;;;;;;5224595;28;20471;-72
2023/07/13 10:34:23;;;;;;;7.18;2.45;;;;;;;;;;5225999;28;20467;-73
2023/07/13 10:36:53;;;;;;;7.47;2.28;;;;;;;;;;5225362;28;20382;-72
2023/07/13 10:39:26;;;;;;;8.23;2.80;;;;;;;;;;5225756;28;20021;-72
2023/07/13 10:41:59;;;;;;;7.45;2.00;;;;;;;;;;5225651;28;20028;-73
2023/07/13 10:44:31;;;;;;;9.00;2.40;;;;;;;;;;5225353;28;20390;-73
2023/07/13 10:47:03;;;;;;;8.02;2.38;;;;;;;;;;5225014;28;20058;-73
2023/07/13 10:49:35;;;;;;;8.75;2.22;;;;;;;;;;5225513;28;20067;-73
2023/07/13 10:52:05;;;;;;;6.07;1.77;;;;;;;;;;5225565;28;20063;-72
2023/07/13 10:54:36;;;;;;;9.82;2.28;;;;;;;;;;5225181;28;20089;-72
2023/07/13 10:57:09;;;;;;;6.43;2.05;;;;;;;;;;5225192;28;20020;-72
2023/07/13 10:59:41;;;;;;;10.13;2.70;;;;;;;;;;5221871;28;20478;-72
2023/07/13 11:02:15;;;;;;;7.57;2.63;;;;;;;;;;5215913;28;20033;-72
2023/07/13 11:04:48;;;;;;;13.73;3.22;;;;;;;;;;5225332;28;20436;-73
2023/07/13 11:07:19;;;;;;;6.40;2.10;;;;;;;;;;5224386;28;20030;-72
2023/07/13 11:09:51;;;;;;;7.45;2.10;;;;;;;;;;5224987;28;20029;-73
2023/07/13 11:12:22;;;;;;;7.22;1.92;;;;;;;;;;5224921;28;20079;-73
2023/07/13 11:14:54;;;;;;;7.57;1.80;;;;;;;;;;5225090;28;20100;-72
2023/07/13 11:17:40;;;;;;;5.93;2.05;;;;;;;;;;5224342;28;20104;-73
2023/07/13 11:20:11;;;;;;;10.15;2.30;;;;;;;;;;5225080;28;20033;-73
2023/07/13 11:22:43;;;;;;;4.13;1.65;;;;;;;;;;5224978;28;20049;-73
2023/07/13 11:25:26;;;;;;;7.85;1.98;;;;;;;;;;5225008;28;20099;-73
2023/07/13 11:28:16;;;;;;;7.68;2.53;;;;;;;;;;5223185;28;20031;-73
2023/07/13 11:30:49;;;;;;;7.10;2.38;;;;;;;;;;5224978;28;20025;-72
2023/07/13 11:33:22;;;;;;;11.63;2.70;;;;;;;;;;5225332;28;20052;-73
2023/07/13 11:36:11;;;;;;;13.48;2.33;;;;;;;;;;5224495;28;20028;-73
2023/07/13 11:38:43;;;;;;;4.05;1.80;;;;;;;;;;5224304;28;20033;-72
2023/07/13 11:41:29;;;;;;;5.40;2.08;;;;;;;;;;5224905;28;20399;-72
2023/07/13 11:44:17;;;;;;;7.85;2.00;;;;;;;;;;5224567;28;20021;-72
2023/07/13 11:46:51;;;;;;;9.18;2.33;;;;;;;;;;5223751;28;20021;-72
2023/07/13 11:49:22;;;;;;;4.72;1.98;;;;;;;;;;5224750;28;20358;-72
2023/07/13 11:51:54;;;;;;;10.68;2.17;;;;;;;;;;5224422;28;20534;-72
2023/07/13 11:54:27;;;;;;;5.07;2.10;;;;;;;;;;5224532;28;20025;-72
2023/07/13 11:57:01;;;;;;;3.88;2.03;;;;;;;;;;5223815;28;20127;-71
2023/07/13 11:59:33;;;;;;;10.55;2.33;;;;;;;;;;5221480;28;20035;-72
2023/07/13 12:02:13;;;;;;;8.55;2.40;;;;;;;;;;5213869;28;20032;-72
2023/07/13 12:04:44;;;;;;;5.30;2.10;;;;;;;;;;5224390;28;20367;-72
2023/07/13 12:07:16;;;;;;;7.85;2.00;;;;;;;;;;5224054;28;20013;-72
2023/07/13 12:09:47;;;;;;;6.05;1.88;;;;;;;;;;5223751;28;20021;-72
2023/07/13 12:12:18;;;;;;;10.15;2.17;;;;;;;;;;5224284;28;20544;-72
2023/07/13 12:15:07;;;;;;;7.80;2.00;;;;;;;;;;5224177;28;20017;-72
2023/07/13 12:17:37;;;;;;;21.38;3.72;;;;;;;;;;5223722;28;20029;-72
2023/07/13 12:20:26;;;;;;;6.90;2.35;;;;;;;;;;5223872;28;20024;-71
2023/07/13 12:22:57;;;;;;;22.65;4.57;;;;;;;;;;5224596;28;20480;-73
2023/07/13 12:25:27;;;;;;;12.73;4.38;;;;;;;;;;5224232;28;20017;-74
2023/07/13 12:27:58;;;;;;;10.38;3.25;;;;;;;;;;5224019;28;20025;-73
2023/07/13 12:30:30;;;;;;;15.32;4.47;;;;;;;;;;5223929;28;20021;-72
2023/07/13 12:33:02;;;;;;;16.65;4.35;;;;;;;;;;5224165;28;20135;-72
2023/07/13 12:35:39;;;;;;;9.02;3.40;;;;;;;;;;5224184;28;20379;-73
2023/07/13 12:38:10;;;;;;;8.45;3.38;;;;;;;;;;5223820;28;20079;-72
2023/07/13 12:40:41;;;;;;;7.35;3.70;;;;;;;;;;5224312;28;20028;-72
2023/07/13 12:43:13;;;;;;;9.80;4.10;;;;;;;;;;5223603;28;20541;-72
2023/07/13 12:46:02;;;;;;;12.68;3.88;;;;;;;;;;5223566;28;20112;-71
2023/07/13 12:48:38;;;;;;;9.50;4.45;;;;;;;;;;5223786;28;20107;-71
2023/07/13 12:51:11;;;;;;;6.15;4.03;;;;;;;;;;5223839;28;20047;-71
2023/07/13 12:53:42;;;;;;;11.07;3.65;;;;;;;;;;5223844;28;20029;-72
2023/07/13 12:56:17;;;;;;;9.35;4.20;;;;;;;;;;5225729;28;20053;-71
2023/07/13 12:58:54;;;;;;;10.45;4.32;;;;;;;;;;5227653;28;20024;-71
2023/07/13 13:01:27;;;;;;;10.07;3.80;;;;;;;;;;5214128;28;20055;-71
2023/07/13 13:04:00;;;;;;;8.18;3.95;;;;;;;;;;5227359;28;20025;-72
2023/07/13 13:06:30;;;;;;;7.57;2.70;;;;;;;;;;5227216;28;20466;-71
2023/07/13 13:09:01;;;;;;;8.18;2.70;;;;;;;;;;5227352;28;20063;-71
2023/07/13 13:11:31;;;;;;;7.07;2.88;;;;;;;;;;5227427;28;20542;-71
2023/07/13 13:14:04;;;;;;;4.88;2.67;;;;;;;;;;5227509;28;20109;-71
2023/07/13 13:16:39;;;;;;;6.50;2.63;;;;;;;;;;5226605;28;20020;-71
2023/07/13 13:19:13;;;;;;;5.80;2.38;;;;;;;;;;5227345;28;20422;-71
2023/07/13 13:21:44;;;;;;;5.35;2.35;;;;;;;;;;5227424;28;20079;-71
2023/07/13 13:24:16;;;;;;;6.85;3.00;;;;;;;;;;5227265;28;20809;-71
2023/07/13 13:26:47;;;;;;;5.53;2.55;;;;;;;;;;5226323;28;20119;-71
2023/07/13 13:29:19;;;;;;;5.97;2.55;;;;;;;;;;5227378;28;20080;-71
2023/07/13 13:31:50;;;;;;;7.20;2.50;;;;;;;;;;5226905;28;20052;-71
2023/07/13 13:34:23;;;;;;;6.13;2.72;;;;;;;;;;5227176;28;20017;-71
2023/07/13 13:36:54;;;;;;;6.05;2.63;;;;;;;;;;5226412;28;20281;-71
2023/07/13 13:39:28;;;;;;;6.15;2.70;;;;;;;;;;5226650;28;20592;-71
2023/07/13 13:41:58;;;;;;;8.60;2.83;;;;;;;;;;5226764;28;20017;-71
2023/07/13 13:44:28;;;;;;;4.85;2.60;;;;;;;;;;5226916;28;20024;-70
2023/07/13 13:46:59;;;;;;;7.00;2.30;;;;;;;;;;5226365;28;20108;-71
2023/07/13 13:49:30;;;;;;;6.63;2.10;;;;;;;;;;5226707;28;20067;-70
2023/07/13 13:52:00;;;;;;;7.00;2.63;;;;;;;;;;5226398;28;20021;-71
2023/07/13 13:54:30;;;;;;;2.83;2.33;;;;;;;;;;5226576;28;20025;-71
2023/07/13 13:57:01;;;;;;;6.45;2.40;;;;;;;;;;5226402;28;20471;-71
2023/07/13 13:59:32;;;;;;;5.00;2.38;;;;;;;;;;5224032;28;20100;-71
2023/07/13 14:02:10;;;;;;;5.55;2.45;;;;;;;;;;5215527;28;20025;-71
2023/07/13 14:04:41;;;;;;;9.40;3.28;;;;;;;;;;5226404;28;20043;-71
2023/07/13 14:07:11;;;;;;;4.50;2.42;;;;;;;;;;5224869;28;20021;-71
2023/07/13 14:09:41;;;;;;;5.00;2.58;;;;;;;;;;5226029;28;20020;-71
2023/07/13 14:12:12;;;;;;;6.20;2.55;;;;;;;;;;5226411;28;20024;-71
2023/07/13 14:14:42;;;;;;;6.22;2.58;;;;;;;;;;5225800;28;20025;-71
2023/07/13 14:17:31;;;;;;;4.00;2.20;;;;;;;;;;5226291;28;20402;-71
2023/07/13 14:20:03;;;;;;;7.35;2.40;;;;;;;;;;5226076;28;20430;-71
2023/07/13 14:22:34;;;;;;;3.10;1.95;;;;;;;;;;5226172;28;20036;-71
2023/07/13 14:25:05;;;;;;;9.32;2.55;;;;;;;;;;5225812;28;20029;-71
2023/07/13 14:27:35;;;;;;;6.40;2.08;;;;;;;;;;5225357;28;20021;-71
2023/07/13 14:30:23;;;;;;;5.60;2.58;;;;;;;;;;5226077;28;20029;-72
2023/07/13 14:32:53;;;;;;;7.70;2.35;;;;;;;;;;5225975;28;20487;-72
2023/07/13 14:35:23;;;;;;;7.78;2.45;;;;;;;;;;5226041;28;20036;-71
2023/07/13 14:37:55;;;;;;;4.35;2.05;;;;;;;;;;5225707;28;20445;-72
2023/07/13 14:40:30;;;;;;;3.63;1.83;;;;;;;;;;5226021;28;20048;-72
2023/07/13 14:43:00;;;;;;;;;;;;;;;;;;5226536;28;20028;-71
2023/07/13 14:45:31;;;;;;;11.30;2.40;;;;;;;;;;5225510;28;19905;-72
2023/07/13 14:48:01;;;;;;;8.45;2.50;;;;;;;;;;5225089;28;20017;-72
2023/07/13 14:50:32;;;;;;;7.15;1.98;;;;;;;;;;5225756;28;20017;-72
2023/07/13 14:53:03;;;;;;;9.02;2.30;;;;;;;;;;5225538;28;20068;-72
2023/07/13 14:55:33;;;;;;;5.07;2.50;;;;;;;;;;5225339;28;20017;-72
2023/07/13 14:58:03;;;;;;;6.60;2.17;;;;;;;;;;5225134;28;20076;-72
2023/07/13 15:00:33;;;;;;;8.48;2.17;;;;;;;;;;5214034;28;20024;-72
2023/07/13 15:03:06;;;;;;;7.18;2.47;;;;;;;;;;5223064;28;20040;-72
2023/07/13 15:05:36;;;;;;;6.55;2.25;;;;;;;;;;5225128;28;20017;-71